createdAt,value
2018-07-15T00:01:47.080Z,100971.16
2018-07-15T00:04:15.709Z,100967.98
2018-07-15T00:06:45.214Z,100967.16
2018-07-15T00:09:14.457Z,100968.84
2018-07-15T00:11:43.023Z,100963.51
2018-07-15T00:14:11.581Z,100963.27
2018-07-15T00:16:40.161Z,100963.16
2018-07-15T00:19:08.700Z,100957.69
2018-07-15T00:21:37.243Z,100961.19
2018-07-15T00:24:05.895Z,100963.27
2018-07-15T00:26:34.404Z,100967.39
2018-07-15T00:29:03.073Z,100963.03
2018-07-15T00:31:31.763Z,100960.37
2018-07-15T00:34:00.360Z,100966.54
2018-07-15T00:36:28.919Z,100966.06
2018-07-15T00:38:57.508Z,100964.38
2018-07-15T00:41:26.042Z,100963.86
2018-07-15T00:43:54.675Z,100967.39
2018-07-15T00:46:23.360Z,100961.70
2018-07-15T00:48:52.094Z,100966.42
2018-07-15T00:51:20.730Z,100965.47
2018-07-15T00:53:49.419Z,100968.50
2018-07-15T00:56:17.945Z,100969.09
2018-07-15T00:58:46.581Z,100970.81
2018-07-15T01:01:15.269Z,100969.09
2018-07-15T01:03:43.918Z,100960.72
2018-07-15T01:06:12.533Z,100963.52
2018-07-15T01:08:41.084Z,100968.38
2018-07-15T01:11:09.622Z,100971.41
2018-07-15T01:13:38.283Z,100963.75
2018-07-15T01:16:06.983Z,100964.73
2018-07-15T01:18:36.474Z,100965.20
2018-07-15T01:21:05.594Z,100969.09
2018-07-15T01:23:34.254Z,100972.63
2018-07-15T01:26:02.863Z,100961.19
2018-07-15T01:28:31.521Z,100956.48
2018-07-15T01:31:00.174Z,100959.63
2018-07-15T01:33:28.742Z,100959.98
2018-07-15T01:35:57.375Z,100962.17
2018-07-15T01:38:25.983Z,100957.81
2018-07-15T01:40:54.488Z,100949.30
2018-07-15T01:43:23.020Z,100952.59
2018-07-15T01:45:51.529Z,100958.05
2018-07-15T01:48:20.186Z,100957.06
2018-07-15T01:50:48.727Z,100961.94
2018-07-15T01:53:17.350Z,100940.68
2018-07-15T01:55:45.885Z,100953.30
2018-07-15T01:58:14.459Z,100955.02
2018-07-15T02:00:43.043Z,100955.50
2018-07-15T02:03:11.681Z,100954.78
2018-07-15T02:05:40.895Z,100965.94
2018-07-15T02:08:09.406Z,100963.86
2018-07-15T02:10:37.990Z,100962.17
2018-07-15T02:13:06.939Z,100960.25
2018-07-15T02:15:35.465Z,100961.19
2018-07-15T02:18:04.044Z,100956.48
2018-07-15T02:20:32.683Z,100955.02
2018-07-15T02:23:01.266Z,100952.35
2018-07-15T02:25:29.878Z,100953.06
2018-07-15T02:27:58.497Z,100954.78
2018-07-15T02:30:27.121Z,100959.15
2018-07-15T02:32:55.613Z,100950.16
2018-07-15T02:35:24.243Z,100954.91
2018-07-15T02:37:52.867Z,100953.57
2018-07-15T02:40:21.550Z,100960.60
2018-07-15T02:42:50.241Z,100958.91
2018-07-15T02:45:18.818Z,100957.22
2018-07-15T02:47:47.402Z,100955.50
2018-07-15T02:50:16.057Z,100950.89
2018-07-15T02:52:44.772Z,100949.92
2018-07-15T02:55:13.447Z,100954.31
2018-07-15T02:57:42.123Z,100954.31
2018-07-15T03:00:10.627Z,100959.89
2018-07-15T03:02:39.231Z,100962.80
2018-07-15T03:05:07.892Z,100959.42
2018-07-15T03:07:36.511Z,100957.45
2018-07-15T03:10:05.079Z,100960.91
2018-07-15T03:12:33.608Z,100954.58
2018-07-15T03:15:02.123Z,100953.63
2018-07-15T03:17:30.764Z,100953.01
2018-07-15T03:19:59.243Z,100949.00
2018-07-15T03:22:27.755Z,100954.34
2018-07-15T03:24:56.400Z,100951.67
2018-07-15T03:27:25.034Z,100959.21
2018-07-15T03:29:54.320Z,100952.77
2018-07-15T03:32:23.020Z,100954.73
2018-07-15T03:34:51.547Z,100951.58
2018-07-15T03:37:20.134Z,100953.87
2018-07-15T03:39:48.926Z,100961.29
2018-07-15T03:42:17.456Z,100958.86
2018-07-15T03:44:46.092Z,100951.70
2018-07-15T03:47:14.826Z,100957.52
2018-07-15T03:49:43.412Z,100956.06
2018-07-15T03:52:12.043Z,100950.84
2018-07-15T03:54:40.611Z,100952.44
2018-07-15T03:57:09.258Z,100958.50
2018-07-15T03:59:37.845Z,100958.25
2018-07-15T04:02:06.629Z,100960.92
2018-07-15T04:04:35.255Z,100956.32
2018-07-15T04:07:03.843Z,100957.30
2018-07-15T04:09:32.479Z,100956.32
2018-07-15T04:12:01.115Z,100953.05
2018-07-15T04:14:29.669Z,100958.64
2018-07-15T04:16:58.254Z,100956.08
2018-07-15T04:19:26.917Z,100957.17
2018-07-15T04:21:55.557Z,100957.29
2018-07-15T04:24:24.130Z,100955.36
2018-07-15T04:26:52.971Z,100957.64
2018-07-15T04:29:21.552Z,100958.86
2018-07-15T04:31:50.168Z,100964.08
2018-07-15T04:34:18.707Z,100964.95
2018-07-15T04:36:48.017Z,100962.16
2018-07-15T04:39:17.367Z,100960.33
2018-07-15T04:41:46.004Z,100969.56
2018-07-15T04:44:14.585Z,100968.70
2018-07-15T04:46:43.111Z,100972.12
2018-07-15T04:49:11.638Z,100978.20
2018-07-15T04:51:40.120Z,100981.71
2018-07-15T04:54:08.751Z,100983.91
2018-07-15T04:56:37.396Z,100986.94
2018-07-15T04:59:05.995Z,100986.70
2018-07-15T05:01:39.067Z,100978.94
2018-07-15T05:04:07.561Z,100977.48
2018-07-15T05:06:36.177Z,100980.75
2018-07-15T05:09:06.003Z,100979.89
2018-07-15T05:11:34.537Z,100984.27
2018-07-15T05:14:03.109Z,100979.42
2018-07-15T05:16:31.643Z,100985.23
2018-07-15T05:19:00.420Z,100984.62
2018-07-15T05:21:29.115Z,100981.45
2018-07-15T05:23:57.647Z,100985.33
2018-07-15T05:26:26.433Z,100992.14
2018-07-15T05:28:55.033Z,100992.77
2018-07-15T05:31:23.701Z,100988.88
2018-07-15T05:33:52.320Z,100989.48
2018-07-15T05:36:20.912Z,100989.59
2018-07-15T05:38:49.551Z,100988.25
2018-07-15T05:41:18.100Z,100993.14
2018-07-15T05:43:46.659Z,100994.59
2018-07-15T05:46:15.216Z,100996.91
2018-07-15T05:48:43.725Z,101005.55
2018-07-15T05:51:12.993Z,101006.37
2018-07-15T05:53:41.623Z,101011.48
2018-07-15T05:56:10.158Z,101014.30
2018-07-15T05:58:38.753Z,101016.84
2018-07-15T06:01:07.802Z,101018.17
2018-07-15T06:03:36.469Z,101020.98
2018-07-15T06:06:05.089Z,101022.91
2018-07-15T06:08:33.631Z,101021.20
2018-07-15T06:11:02.523Z,101023.63
2018-07-15T06:13:32.111Z,101023.50
2018-07-15T06:16:00.717Z,101026.67
2018-07-15T06:18:29.288Z,101025.66
2018-07-15T06:20:57.863Z,101025.30
2018-07-15T06:23:26.504Z,101031.64
2018-07-15T06:25:55.013Z,101029.94
2018-07-15T06:28:23.512Z,101028.82
2018-07-15T06:30:52.067Z,101034.40
2018-07-15T06:33:20.656Z,101036.83
2018-07-15T06:35:49.256Z,101023.95
2018-07-15T06:38:17.852Z,101035.46
2018-07-15T06:40:46.735Z,101047.14
2018-07-15T06:43:15.369Z,101051.63
2018-07-15T06:45:43.911Z,101049.08
2018-07-15T06:48:12.477Z,101051.77
2018-07-15T06:50:41.038Z,101054.01
2018-07-15T06:53:09.631Z,101066.07
2018-07-15T06:55:38.202Z,101055.75
2018-07-15T06:58:06.715Z,101053.55
2018-07-15T07:00:35.336Z,101065.97
2018-07-15T07:03:04.033Z,101058.88
2018-07-15T07:05:32.923Z,101060.94
2018-07-15T07:08:01.574Z,101068.92
2018-07-15T07:10:30.121Z,101071.75
2018-07-15T07:12:58.714Z,101068.92
2018-07-15T07:15:27.973Z,101079.28
2018-07-15T07:17:56.602Z,101075.14
2018-07-15T07:20:25.196Z,101069.15
2018-07-15T07:22:53.820Z,101079.84
2018-07-15T07:25:22.506Z,101064.81
2018-07-15T07:27:51.180Z,101074.10
2018-07-15T07:30:20.563Z,101074.80
2018-07-15T07:32:49.137Z,101076.14
2018-07-15T07:35:18.379Z,101083.67
2018-07-15T07:37:47.060Z,101079.77
2018-07-15T07:40:15.698Z,101081.98
2018-07-15T07:42:44.371Z,101081.41
2018-07-15T07:45:13.015Z,101089.31
2018-07-15T07:47:41.731Z,101088.48
2018-07-15T07:50:10.303Z,101096.91
2018-07-15T07:52:39.067Z,101098.57
2018-07-15T07:55:07.658Z,101100.27
2018-07-15T07:57:36.284Z,101099.14
2018-07-15T08:00:05.091Z,101101.31
2018-07-15T08:02:33.618Z,101102.05
2018-07-15T08:05:02.223Z,101109.77
2018-07-15T08:07:30.817Z,101105.52
2018-07-15T08:09:59.455Z,101112.45
2018-07-15T08:12:28.757Z,101105.43
2018-07-15T08:14:58.106Z,101102.80
2018-07-15T08:17:26.636Z,101105.44
2018-07-15T08:19:55.299Z,101107.20
2018-07-15T08:22:23.909Z,101107.89
2018-07-15T08:24:52.593Z,101112.78
2018-07-15T08:27:21.173Z,101110.06
2018-07-15T08:30:01.027Z,101114.09
2018-07-15T08:32:29.632Z,101115.73
2018-07-15T08:34:58.283Z,101115.97
2018-07-15T08:37:26.811Z,101114.73
2018-07-15T08:39:55.559Z,101116.16
2018-07-15T08:42:24.079Z,101125.75
2018-07-15T08:44:52.758Z,101124.83
2018-07-15T08:47:21.408Z,101121.99
2018-07-15T08:49:49.940Z,101128.17
2018-07-15T08:52:18.529Z,101122.27
2018-07-15T08:54:47.181Z,101122.70
2018-07-15T08:57:15.742Z,101129.67
2018-07-15T08:59:44.528Z,101134.10
2018-07-15T09:02:13.781Z,101129.86
2018-07-15T09:04:42.398Z,101132.28
2018-07-15T09:07:10.931Z,101135.05
2018-07-15T09:09:39.509Z,101125.88
2018-07-15T09:12:08.773Z,101124.69
2018-07-15T09:14:37.376Z,101126.57
2018-07-15T09:17:06.004Z,101129.33
2018-07-15T09:19:34.975Z,101131.94
2018-07-15T09:22:04.423Z,101140.68
2018-07-15T09:24:33.570Z,101139.06
2018-07-15T09:27:02.419Z,101143.55
2018-07-15T09:29:30.906Z,101140.59
2018-07-15T09:31:59.545Z,101141.59
2018-07-15T09:34:28.169Z,101139.88
2018-07-15T09:36:56.752Z,101137.94
2018-07-15T09:39:25.392Z,101133.70
2018-07-15T09:41:53.976Z,101126.42
2018-07-15T09:44:22.543Z,101136.91
2018-07-15T09:46:51.261Z,101132.31
2018-07-15T09:49:19.800Z,101135.63
2018-07-15T09:51:48.384Z,101131.01
2018-07-15T09:54:16.993Z,101135.97
2018-07-15T09:56:45.539Z,101134.45
2018-07-15T09:59:14.260Z,101132.03
2018-07-15T10:01:42.832Z,101134.45
2018-07-15T10:04:11.368Z,101125.22
2018-07-15T10:06:39.896Z,101129.77
2018-07-15T10:09:08.466Z,101132.69
2018-07-15T10:11:37.539Z,101136.99
2018-07-15T10:14:06.110Z,101135.24
2018-07-15T10:16:34.618Z,101138.99
2018-07-15T10:19:03.327Z,101142.07
2018-07-15T10:21:31.907Z,101146.51
2018-07-15T10:24:00.471Z,101146.17
2018-07-15T10:26:29.195Z,101143.95
2018-07-15T10:28:57.684Z,101138.93
2018-07-15T10:31:26.249Z,101135.59
2018-07-15T10:33:54.875Z,101140.41
2018-07-15T10:36:23.391Z,101126.84
2018-07-15T10:38:51.990Z,101124.87
2018-07-15T10:41:20.612Z,101126.13
2018-07-15T10:43:49.515Z,101104.09
2018-07-15T10:46:18.028Z,101133.23
2018-07-15T10:48:46.627Z,101135.61
2018-07-15T10:51:15.363Z,101125.16
2018-07-15T10:53:43.967Z,101131.85
2018-07-15T10:56:12.531Z,101133.05
2018-07-15T10:58:41.216Z,101134.64
2018-07-15T11:01:10.045Z,101142.41
2018-07-15T11:03:38.690Z,101140.62
2018-07-15T11:06:07.416Z,101142.70
2018-07-15T11:08:35.984Z,101138.50
2018-07-15T11:11:04.591Z,101141.25
2018-07-15T11:13:33.258Z,101144.09
2018-07-15T11:16:01.843Z,101136.84
2018-07-15T11:18:30.496Z,101138.78
2018-07-15T11:21:00.715Z,101145.01
2018-07-15T11:23:29.400Z,101147.94
2018-07-15T11:25:57.966Z,101146.16
2018-07-15T11:28:26.611Z,101150.72
2018-07-15T11:30:55.608Z,101154.44
2018-07-15T11:33:24.103Z,101150.95
2018-07-15T11:35:52.827Z,101150.23
2018-07-15T11:38:21.410Z,101147.45
2018-07-15T11:40:49.994Z,101142.45
2018-07-15T11:43:18.599Z,101143.67
2018-07-15T11:45:49.830Z,101147.84
2018-07-15T11:48:18.515Z,101156.47
2018-07-15T11:50:47.121Z,101150.89
2018-07-15T11:53:15.740Z,101152.31
2018-07-15T11:55:44.299Z,101153.73
2018-07-15T11:58:12.870Z,101144.95
2018-07-15T12:00:41.490Z,101147.70
2018-07-15T12:03:10.147Z,101147.77
2018-07-15T12:05:38.656Z,101147.50
2018-07-15T12:08:07.358Z,101149.20
2018-07-15T12:10:36.106Z,101144.06
2018-07-15T12:13:04.654Z,101150.93
2018-07-15T12:15:33.428Z,101155.28
2018-07-15T12:18:01.907Z,101151.45
2018-07-15T12:20:30.508Z,101155.33
2018-07-15T12:23:00.199Z,101161.92
2018-07-15T12:25:29.520Z,101156.16
2018-07-15T12:27:58.126Z,101158.40
2018-07-15T12:30:26.878Z,101154.70
2018-07-15T12:32:55.483Z,101153.22
2018-07-15T12:35:25.023Z,101152.30
2018-07-15T12:37:53.575Z,101149.48
2018-07-15T12:40:22.069Z,101154.00
2018-07-15T12:42:50.708Z,101149.48
2018-07-15T12:45:20.273Z,101155.36
2018-07-15T12:47:48.824Z,101154.22
2018-07-15T12:50:17.402Z,101156.27
2018-07-15T12:52:46.056Z,101150.89
2018-07-15T12:55:14.645Z,101152.73
2018-07-15T12:57:43.228Z,101151.11
2018-07-15T13:00:11.913Z,101149.66
2018-07-15T13:02:40.552Z,101146.31
2018-07-15T13:05:09.201Z,101146.31
2018-07-15T13:07:38.788Z,101151.17
2018-07-15T13:10:07.390Z,101147.71
2018-07-15T13:12:36.364Z,101148.44
2018-07-15T13:15:05.457Z,101149.98
2018-07-15T13:17:34.145Z,101148.24
2018-07-15T13:20:02.671Z,101145.41
2018-07-15T13:22:31.694Z,101148.53
2018-07-15T13:25:00.283Z,101142.25
2018-07-15T13:27:28.887Z,101139.80
2018-07-15T13:29:57.569Z,101152.18
2018-07-15T13:32:26.177Z,101143.73
2018-07-15T13:34:54.779Z,101151.56
2018-07-15T13:37:23.833Z,101148.28
2018-07-15T13:39:52.459Z,101153.92
2018-07-15T13:42:21.039Z,101159.70
2018-07-15T13:44:49.673Z,101147.15
2018-07-15T13:47:18.163Z,101146.27
2018-07-15T13:49:46.849Z,101142.23
2018-07-15T13:52:15.490Z,101145.59
2018-07-15T13:54:44.030Z,101142.55
2018-07-15T13:57:12.698Z,101141.13
2018-07-15T13:59:41.347Z,101136.81
2018-07-15T14:02:09.856Z,101135.30
2018-07-15T14:04:38.463Z,101136.03
2018-07-15T14:07:07.065Z,101139.76
2018-07-15T14:09:35.717Z,101131.58
2018-07-15T14:12:04.351Z,101129.35
2018-07-15T14:14:32.930Z,101130.17
2018-07-15T14:17:01.503Z,101122.95
2018-07-15T14:19:30.046Z,101134.86
2018-07-15T14:21:58.611Z,101125.17
2018-07-15T14:24:27.210Z,101126.45
2018-07-15T14:26:55.898Z,101122.18
2018-07-15T14:29:24.395Z,101119.48
2018-07-15T14:31:52.958Z,101120.23
2018-07-15T14:34:21.475Z,101124.53
2018-07-15T14:36:50.089Z,101113.15
2018-07-15T14:39:18.690Z,101118.09
2018-07-15T14:41:47.357Z,101119.28
2018-07-15T14:44:16.687Z,101119.33
2018-07-15T14:46:46.002Z,101123.08
2018-07-15T14:49:14.515Z,101117.19
2018-07-15T14:51:43.120Z,101119.11
2018-07-15T14:54:11.759Z,101114.61
2018-07-15T14:56:40.388Z,101107.79
2018-07-15T14:59:08.951Z,101117.09
2018-07-15T15:01:37.493Z,101108.69
2018-07-15T15:04:06.024Z,101109.14
2018-07-15T15:06:34.630Z,101117.17
2018-07-15T15:09:03.366Z,101117.80
2018-07-15T15:11:31.928Z,101118.80
2018-07-15T15:14:00.573Z,101105.96
2018-07-15T15:16:29.078Z,101116.11
2018-07-15T15:18:57.593Z,101113.56
2018-07-15T15:21:26.310Z,101120.73
2018-07-15T15:23:55.369Z,101120.95
2018-07-15T15:26:23.979Z,101108.77
2018-07-15T15:28:52.819Z,101110.47
2018-07-15T15:31:21.413Z,101105.83
2018-07-15T15:33:50.031Z,101111.08
2018-07-15T15:36:18.881Z,101105.06
2018-07-15T15:38:47.468Z,101115.08
2018-07-15T15:41:15.963Z,101116.16
2018-07-15T15:43:45.255Z,101119.88
2018-07-15T15:46:13.827Z,101115.55
2018-07-15T15:48:42.447Z,101111.94
2018-07-15T15:51:11.816Z,101112.55
2018-07-15T15:53:40.347Z,101112.02
2018-07-15T15:56:08.921Z,101118.41
2018-07-15T15:58:38.137Z,101110.39
2018-07-15T16:01:06.676Z,101101.98
2018-07-15T16:03:35.270Z,101098.58
2018-07-15T16:06:03.923Z,101105.73
2018-07-15T16:08:32.434Z,101110.88
2018-07-15T16:11:01.012Z,101101.18
2018-07-15T16:13:29.774Z,101108.02
2018-07-15T16:15:58.357Z,101100.30
2018-07-15T16:18:26.941Z,101098.53
2018-07-15T16:20:55.830Z,101097.91
2018-07-15T16:23:24.360Z,101099.20
2018-07-15T16:25:52.908Z,101093.24
2018-07-15T16:28:21.514Z,101100.30
2018-07-15T16:30:50.163Z,101104.31
2018-07-15T16:33:18.744Z,101100.47
2018-07-15T16:35:48.019Z,101094.41
2018-07-15T16:38:16.573Z,101104.92
2018-07-15T16:40:45.145Z,101095.45
2018-07-15T16:43:13.757Z,101094.59
2018-07-15T16:45:42.331Z,101097.66
2018-07-15T16:48:11.019Z,101095.34
2018-07-15T16:50:39.594Z,101093.05
2018-07-15T16:53:08.215Z,101089.35
2018-07-15T16:55:36.809Z,101082.54
2018-07-15T16:58:05.479Z,101082.23
2018-07-15T17:00:34.083Z,101083.59
2018-07-15T17:03:02.654Z,101079.58
2018-07-15T17:05:31.243Z,101079.31
2018-07-15T17:07:59.827Z,101080.66
2018-07-15T17:10:28.323Z,101077.56
2018-07-15T17:12:56.953Z,101092.05
2018-07-15T17:15:26.465Z,101091.30
2018-07-15T17:17:55.078Z,101089.08
2018-07-15T17:20:23.767Z,101084.03
2018-07-15T17:22:53.063Z,101083.52
2018-07-15T17:25:21.589Z,101080.53
2018-07-15T17:27:50.231Z,101079.95
2018-07-15T17:30:18.837Z,101085.03
2018-07-15T17:32:47.497Z,101081.04
2018-07-15T17:35:16.007Z,101086.22
2018-07-15T17:37:44.702Z,101083.10
2018-07-15T17:40:13.347Z,101083.81
2018-07-15T17:42:42.023Z,101085.03
2018-07-15T17:45:10.616Z,101082.16
2018-07-15T17:47:39.142Z,101082.98
2018-07-15T17:50:07.790Z,101086.45
2018-07-15T17:52:36.422Z,101087.03
2018-07-15T17:55:04.981Z,101087.17
2018-07-15T17:57:33.635Z,101084.34
2018-07-15T18:00:02.893Z,101087.25
2018-07-15T18:02:31.432Z,101090.52
2018-07-15T18:05:00.152Z,101094.36
2018-07-15T18:07:29.216Z,101093.19
2018-07-15T18:09:57.878Z,101094.12
2018-07-15T18:12:26.385Z,101095.26
2018-07-15T18:14:55.560Z,101093.17
2018-07-15T18:17:24.189Z,101090.56
2018-07-15T18:19:52.994Z,101109.03
2018-07-15T18:22:21.557Z,101102.38
2018-07-15T18:24:50.155Z,101105.44
2018-07-15T18:27:18.771Z,101096.09
2018-07-15T18:29:47.382Z,101098.98
2018-07-15T18:32:15.935Z,101102.56
2018-07-15T18:34:44.943Z,101109.00
2018-07-15T18:37:13.653Z,101099.58
2018-07-15T18:39:42.295Z,101100.47
2018-07-15T18:42:10.890Z,101101.53
2018-07-15T18:44:39.387Z,101100.24
2018-07-15T18:47:08.056Z,101097.99
2018-07-15T18:49:36.651Z,101100.47
2018-07-15T18:52:05.265Z,101100.55
2018-07-15T18:54:33.907Z,101101.05
2018-07-15T18:57:02.471Z,101100.36
2018-07-15T18:59:31.023Z,101112.80
2018-07-15T19:01:59.654Z,101112.32
2018-07-15T19:04:28.155Z,101109.89
2018-07-15T19:06:56.768Z,101101.50
2018-07-15T19:09:25.495Z,101106.88
2018-07-15T19:11:54.048Z,101108.73
2018-07-15T19:14:22.721Z,101110.69
2018-07-15T19:16:51.415Z,101116.94
2018-07-15T19:19:20.095Z,101111.69
2018-07-15T19:21:48.683Z,101118.53
2018-07-15T19:24:17.259Z,101111.09
2018-07-15T19:26:45.855Z,101112.33
2018-07-15T19:29:14.526Z,101116.95
2018-07-15T19:31:43.164Z,101120.14
2018-07-15T19:34:11.951Z,101123.91
2018-07-15T19:36:40.658Z,101116.86
2018-07-15T19:39:09.301Z,101121.36
2018-07-15T19:41:38.008Z,101097.36
2018-07-15T19:44:06.610Z,101123.67
2018-07-15T19:46:35.135Z,101127.28
2018-07-15T19:49:04.119Z,101123.12
2018-07-15T19:51:32.643Z,101127.64
2018-07-15T19:54:01.255Z,101127.02
2018-07-15T19:56:29.863Z,101128.83
2018-07-15T19:58:58.443Z,101139.30
2018-07-15T20:01:27.141Z,101139.13
2018-07-15T20:03:55.968Z,101142.98
2018-07-15T20:06:24.653Z,101145.89
2018-07-15T20:08:53.341Z,101143.09
2018-07-15T20:11:21.864Z,101138.45
2018-07-15T20:13:50.427Z,101150.94
2018-07-15T20:16:19.091Z,101143.02
2018-07-15T20:18:47.776Z,101149.34
2018-07-15T20:21:16.410Z,101144.59
2018-07-15T20:23:44.991Z,101145.91
2018-07-15T20:26:13.795Z,101145.39
2018-07-15T20:28:42.365Z,101146.05
2018-07-15T20:31:10.994Z,101146.91
2018-07-15T20:33:39.535Z,101148.69
2018-07-15T20:36:08.104Z,101151.06
2018-07-15T20:38:36.743Z,101152.49
2018-07-15T20:41:05.263Z,101153.91
2018-07-15T20:43:33.835Z,101162.09
2018-07-15T20:46:02.441Z,101153.52
2018-07-15T20:48:31.078Z,101154.57
2018-07-15T20:51:00.203Z,101159.59
2018-07-15T20:53:28.785Z,101149.57
2018-07-15T20:55:57.367Z,101156.67
2018-07-15T20:58:26.020Z,101163.41
2018-07-15T21:00:54.547Z,101167.85
2018-07-15T21:03:23.185Z,101167.27
2018-07-15T21:05:51.801Z,101167.73
2018-07-15T21:08:20.369Z,101171.77
2018-07-15T21:10:49.037Z,101172.19
2018-07-15T21:13:18.337Z,101172.61
2018-07-15T21:15:47.022Z,101172.30
2018-07-15T21:18:15.742Z,101171.75
2018-07-15T21:20:44.447Z,101179.19
2018-07-15T21:23:13.682Z,101177.70
2018-07-15T21:25:42.258Z,101171.84
2018-07-15T21:28:10.758Z,101185.95
2018-07-15T21:30:39.444Z,101182.47
2018-07-15T21:33:08.025Z,101174.02
2018-07-15T21:35:36.708Z,101180.16
2018-07-15T21:38:05.429Z,101177.40
2018-07-15T21:40:34.073Z,101182.30
2018-07-15T21:43:02.663Z,101181.73
2018-07-15T21:45:31.245Z,101181.30
2018-07-15T21:47:59.828Z,101176.81
2018-07-15T21:50:28.468Z,101172.34
2018-07-15T21:52:57.099Z,101176.84
2018-07-15T21:55:26.192Z,101177.23
2018-07-15T21:57:54.834Z,101178.47
2018-07-15T22:00:23.384Z,101176.20
2018-07-15T22:02:53.012Z,101178.42
2018-07-15T22:05:21.648Z,101172.89
2018-07-15T22:08:01.321Z,101185.47
2018-07-15T22:10:37.892Z,101183.56
2018-07-15T22:13:06.422Z,101186.05
2018-07-15T22:15:35.482Z,101181.11
2018-07-15T22:18:04.688Z,101176.73
2018-07-15T22:20:33.263Z,101180.36
2018-07-15T22:23:02.355Z,101179.31
2018-07-15T22:25:30.952Z,101181.70
2018-07-15T22:28:00.705Z,101179.42
2018-07-15T22:30:29.310Z,101185.67
2018-07-15T22:32:57.902Z,101193.47
2018-07-15T22:35:26.648Z,101186.73
2018-07-15T22:37:55.344Z,101186.05
2018-07-15T22:40:23.842Z,101184.27
2018-07-15T22:42:52.445Z,101198.22
2018-07-15T22:45:20.991Z,101199.73
2018-07-15T22:47:49.640Z,101198.22
2018-07-15T22:50:18.792Z,101188.38
2018-07-15T22:52:47.456Z,101187.61
2018-07-15T22:55:15.958Z,101193.11
2018-07-15T22:57:44.723Z,101192.83
2018-07-15T23:00:13.421Z,101189.30
2018-07-15T23:02:41.926Z,101189.58
2018-07-15T23:05:51.125Z,101186.36
2018-07-15T23:08:20.118Z,101179.31
2018-07-15T23:10:48.847Z,101184.08
2018-07-15T23:13:17.897Z,101184.25
2018-07-15T23:15:46.542Z,101176.84
2018-07-15T23:18:15.168Z,101190.70
2018-07-15T23:20:44.535Z,101185.58
2018-07-15T23:23:13.663Z,101182.23
2018-07-15T23:25:42.164Z,101185.53
2018-07-15T23:28:12.511Z,101178.70
2018-07-15T23:30:41.873Z,101177.09
2018-07-15T23:33:11.006Z,101182.08
2018-07-15T23:35:39.700Z,101184.00
2018-07-15T23:38:08.337Z,101179.78
2018-07-15T23:40:36.903Z,101180.92
2018-07-15T23:43:05.918Z,101183.38
2018-07-15T23:45:35.255Z,101180.81
2018-07-15T23:48:04.819Z,101188.28
2018-07-15T23:50:33.501Z,101189.41
2018-07-15T23:53:02.188Z,101181.53
2018-07-15T23:55:30.858Z,101185.23
2018-07-15T23:57:59.535Z,101184.45
